sensor_id;sensor_type;location;lat;lon;timestamp;pressure;altitude;pressure_sealevel;temperature;humidity
47716;BME280;33476;50.984;3.538;2023-06-14T00:01:32;101402.63;;;23.77;43.63
47716;BME280;33476;50.984;3.538;2023-06-14T00:04:00;101403.88;;;23.73;43.70
47716;BME280;33476;50.984;3.538;2023-06-14T00:06:26;101403.34;;;23.69;43.61
47716;BME280;33476;50.984;3.538;2023-06-14T00:08:52;101405.59;;;23.64;43.99
47716;BME280;33476;50.984;3.538;2023-06-14T00:11:17;101398.88;;;23.60;44.14
47716;BME280;33476;50.984;3.538;2023-06-14T00:13:43;101407.41;;;23.54;44.32
47716;BME280;33476;50.984;3.538;2023-06-14T00:16:08;101411.47;;;23.48;44.50
47716;BME280;33476;50.984;3.538;2023-06-14T00:18:33;101407.44;;;23.44;44.43
47716;BME280;33476;50.984;3.538;2023-06-14T00:20:59;101408.69;;;23.40;44.83
47716;BME280;33476;50.984;3.538;2023-06-14T00:23:25;101406.31;;;23.37;44.86
47716;BME280;33476;50.984;3.538;2023-06-14T00:25:50;101410.94;;;23.35;45.04
47716;BME280;33476;50.984;3.538;2023-06-14T00:28:16;101406.59;;;23.34;44.89
47716;BME280;33476;50.984;3.538;2023-06-14T00:30:41;101403.94;;;23.34;45.15
47716;BME280;33476;50.984;3.538;2023-06-14T00:33:09;101401.38;;;23.33;45.17
47716;BME280;33476;50.984;3.538;2023-06-14T00:35:34;101402.66;;;23.29;45.41
47716;BME280;33476;50.984;3.538;2023-06-14T00:38:00;101404.50;;;23.28;45.61
47716;BME280;33476;50.984;3.538;2023-06-14T00:40:26;101402.09;;;23.25;45.53
47716;BME280;33476;50.984;3.538;2023-06-14T00:42:52;101407.72;;;23.22;45.64
47716;BME280;33476;50.984;3.538;2023-06-14T00:45:17;101407.88;;;23.20;45.97
47716;BME280;33476;50.984;3.538;2023-06-14T00:47:43;101409.94;;;23.17;45.90
47716;BME280;33476;50.984;3.538;2023-06-14T00:50:09;101410.25;;;23.14;46.36
47716;BME280;33476;50.984;3.538;2023-06-14T00:52:35;101404.53;;;23.09;46.46
47716;BME280;33476;50.984;3.538;2023-06-14T00:55:01;101402.94;;;23.06;46.51
47716;BME280;33476;50.984;3.538;2023-06-14T00:57:27;101406.75;;;23.04;46.68
47716;BME280;33476;50.984;3.538;2023-06-14T00:59:54;101412.38;;;23.01;46.82
47716;BME280;33476;50.984;3.538;2023-06-14T01:02:20;101408.13;;;22.98;47.16
47716;BME280;33476;50.984;3.538;2023-06-14T01:04:48;101412.91;;;22.94;47.03
47716;BME280;33476;50.984;3.538;2023-06-14T01:07:31;101406.59;;;22.86;47.41
47716;BME280;33476;50.984;3.538;2023-06-14T01:10:08;101408.50;;;22.84;47.38
47716;BME280;33476;50.984;3.538;2023-06-14T01:12:47;101411.47;;;22.81;47.34
47716;BME280;33476;50.984;3.538;2023-06-14T01:15:17;101413.13;;;22.82;47.54
47716;BME280;33476;50.984;3.538;2023-06-14T01:17:44;101414.41;;;22.78;47.69
47716;BME280;33476;50.984;3.538;2023-06-14T01:20:11;101418.31;;;22.74;47.59
47716;BME280;33476;50.984;3.538;2023-06-14T01:22:55;101407.38;;;22.67;47.84
47716;BME280;33476;50.984;3.538;2023-06-14T01:25:20;101409.63;;;22.71;47.69
47716;BME280;33476;50.984;3.538;2023-06-14T01:27:53;101406.41;;;22.68;47.59
47716;BME280;33476;50.984;3.538;2023-06-14T01:30:18;101412.44;;;22.70;47.56
47716;BME280;33476;50.984;3.538;2023-06-14T01:32:45;101410.91;;;22.67;47.65
47716;BME280;33476;50.984;3.538;2023-06-14T01:35:11;101408.25;;;22.67;47.66
47716;BME280;33476;50.984;3.538;2023-06-14T01:37:37;101411.00;;;22.66;47.66
47716;BME280;33476;50.984;3.538;2023-06-14T01:40:05;101413.13;;;22.62;47.79
47716;BME280;33476;50.984;3.538;2023-06-14T01:42:33;101411.69;;;22.58;47.94
47716;BME280;33476;50.984;3.538;2023-06-14T01:45:01;101411.00;;;22.56;47.96
47716;BME280;33476;50.984;3.538;2023-06-14T01:47:27;101417.31;;;22.55;47.95
47716;BME280;33476;50.984;3.538;2023-06-14T01:49:53;101412.25;;;22.52;48.12
47716;BME280;33476;50.984;3.538;2023-06-14T01:52:18;101413.25;;;22.51;48.19
47716;BME280;33476;50.984;3.538;2023-06-14T01:54:44;101417.16;;;22.47;48.15
47716;BME280;33476;50.984;3.538;2023-06-14T01:57:11;101414.63;;;22.46;48.47
47716;BME280;33476;50.984;3.538;2023-06-14T01:59:37;101415.75;;;22.43;48.39
47716;BME280;33476;50.984;3.538;2023-06-14T02:02:03;101417.81;;;22.39;48.43
47716;BME280;33476;50.984;3.538;2023-06-14T02:04:28;101423.44;;;22.36;48.53
47716;BME280;33476;50.984;3.538;2023-06-14T02:06:54;101422.72;;;22.34;48.45
47716;BME280;33476;50.984;3.538;2023-06-14T02:09:19;101422.97;;;22.31;48.60
47716;BME280;33476;50.984;3.538;2023-06-14T02:11:44;101428.44;;;22.30;48.52
47716;BME280;33476;50.984;3.538;2023-06-14T02:14:10;101427.16;;;22.24;48.50
47716;BME280;33476;50.984;3.538;2023-06-14T02:16:37;101422.25;;;22.20;48.69
47716;BME280;33476;50.984;3.538;2023-06-14T02:19:04;101425.03;;;22.18;48.81
47716;BME280;33476;50.984;3.538;2023-06-14T02:21:29;101422.91;;;22.12;48.84
47716;BME280;33476;50.984;3.538;2023-06-14T02:23:55;101424.72;;;22.11;48.90
47716;BME280;33476;50.984;3.538;2023-06-14T02:26:21;101422.31;;;22.08;48.82
47716;BME280;33476;50.984;3.538;2023-06-14T02:28:47;101427.88;;;22.05;49.09
47716;BME280;33476;50.984;3.538;2023-06-14T02:31:13;101423.69;;;22.03;49.23
47716;BME280;33476;50.984;3.538;2023-06-14T02:33:38;101414.13;;;22.00;49.04
47716;BME280;33476;50.984;3.538;2023-06-14T02:36:04;101416.34;;;21.95;49.14
47716;BME280;33476;50.984;3.538;2023-06-14T02:38:30;101422.19;;;21.89;49.18
47716;BME280;33476;50.984;3.538;2023-06-14T02:40:55;101424.16;;;21.87;49.18
47716;BME280;33476;50.984;3.538;2023-06-14T02:43:21;101424.41;;;21.84;49.20
47716;BME280;33476;50.984;3.538;2023-06-14T02:45:46;101426.50;;;21.80;49.26
47716;BME280;33476;50.984;3.538;2023-06-14T02:48:11;101422.28;;;21.78;49.00
47716;BME280;33476;50.984;3.538;2023-06-14T02:50:37;101424.34;;;21.74;49.02
47716;BME280;33476;50.984;3.538;2023-06-14T02:53:02;101414.13;;;21.70;49.18
47716;BME280;33476;50.984;3.538;2023-06-14T02:55:28;101426.81;;;21.66;49.18
47716;BME280;33476;50.984;3.538;2023-06-14T02:57:53;101425.28;;;21.64;49.36
47716;BME280;33476;50.984;3.538;2023-06-14T03:00:19;101428.06;;;21.62;49.13
47716;BME280;33476;50.984;3.538;2023-06-14T03:02:44;101429.28;;;21.58;49.10
47716;BME280;33476;50.984;3.538;2023-06-14T03:05:11;101425.78;;;21.57;48.81
47716;BME280;33476;50.984;3.538;2023-06-14T03:07:36;101427.75;;;21.55;48.89
47716;BME280;33476;50.984;3.538;2023-06-14T03:10:09;101428.00;;;21.52;49.01
47716;BME280;33476;50.984;3.538;2023-06-14T03:12:35;101431.75;;;21.50;49.12
47716;BME280;33476;50.984;3.538;2023-06-14T03:15:01;101431.19;;;21.46;49.00
47716;BME280;33476;50.984;3.538;2023-06-14T03:17:27;101434.09;;;21.43;48.93
47716;BME280;33476;50.984;3.538;2023-06-14T03:19:55;101432.53;;;21.41;48.86
47716;BME280;33476;50.984;3.538;2023-06-14T03:22:20;101436.16;;;21.40;48.66
47716;BME280;33476;50.984;3.538;2023-06-14T03:24:47;101431.25;;;21.35;48.45
47716;BME280;33476;50.984;3.538;2023-06-14T03:27:13;101435.81;;;21.33;48.68
47716;BME280;33476;50.984;3.538;2023-06-14T03:29:39;101441.13;;;21.33;48.62
47716;BME280;33476;50.984;3.538;2023-06-14T03:32:05;101437.63;;;21.33;48.63
47716;BME280;33476;50.984;3.538;2023-06-14T03:34:30;101446.72;;;21.30;48.37
47716;BME280;33476;50.984;3.538;2023-06-14T03:36:56;101447.56;;;21.30;48.47
47716;BME280;33476;50.984;3.538;2023-06-14T03:39:21;101452.16;;;21.28;48.34
47716;BME280;33476;50.984;3.538;2023-06-14T03:41:47;101442.97;;;21.21;48.32
47716;BME280;33476;50.984;3.538;2023-06-14T03:44:15;101450.94;;;21.21;48.14
47716;BME280;33476;50.984;3.538;2023-06-14T03:46:40;101462.41;;;21.22;48.21
47716;BME280;33476;50.984;3.538;2023-06-14T03:49:06;101451.09;;;21.20;48.02
47716;BME280;33476;50.984;3.538;2023-06-14T03:51:31;101463.53;;;21.19;47.83
47716;BME280;33476;50.984;3.538;2023-06-14T03:53:56;101456.63;;;21.17;48.27
47716;BME280;33476;50.984;3.538;2023-06-14T03:56:22;101458.31;;;21.18;47.64
47716;BME280;33476;50.984;3.538;2023-06-14T03:58:47;101453.75;;;21.20;47.68
47716;BME280;33476;50.984;3.538;2023-06-14T04:01:13;101460.13;;;21.17;47.75
47716;BME280;33476;50.984;3.538;2023-06-14T04:03:39;101459.41;;;21.15;47.32
47716;BME280;33476;50.984;3.538;2023-06-14T04:06:06;101462.06;;;21.15;47.07
47716;BME280;33476;50.984;3.538;2023-06-14T04:08:33;101466.28;;;21.18;47.04
47716;BME280;33476;50.984;3.538;2023-06-14T04:10:58;101463.53;;;21.19;47.27
47716;BME280;33476;50.984;3.538;2023-06-14T04:13:23;101465.34;;;21.19;46.79
47716;BME280;33476;50.984;3.538;2023-06-14T04:15:49;101467.88;;;21.20;46.89
47716;BME280;33476;50.984;3.538;2023-06-14T04:18:14;101478.34;;;21.22;46.56
47716;BME280;33476;50.984;3.538;2023-06-14T04:20:39;101474.59;;;21.24;46.66
47716;BME280;33476;50.984;3.538;2023-06-14T04:23:16;101473.31;;;21.19;46.44
47716;BME280;33476;50.984;3.538;2023-06-14T04:25:43;101473.63;;;21.25;46.12
47716;BME280;33476;50.984;3.538;2023-06-14T04:28:11;101477.06;;;21.27;46.24
47716;BME280;33476;50.984;3.538;2023-06-14T04:30:37;101472.56;;;21.28;46.57
47716;BME280;33476;50.984;3.538;2023-06-14T04:33:04;101479.78;;;21.26;46.60
47716;BME280;33476;50.984;3.538;2023-06-14T04:35:31;101478.72;;;21.28;46.54
47716;BME280;33476;50.984;3.538;2023-06-14T04:37:57;101487.53;;;21.29;46.55
47716;BME280;33476;50.984;3.538;2023-06-14T04:40:23;101484.63;;;21.32;46.28
47716;BME280;33476;50.984;3.538;2023-06-14T04:42:49;101482.56;;;21.36;46.04
47716;BME280;33476;50.984;3.538;2023-06-14T04:45:16;101480.50;;;21.39;46.16
47716;BME280;33476;50.984;3.538;2023-06-14T04:47:41;101483.00;;;21.41;46.38
47716;BME280;33476;50.984;3.538;2023-06-14T04:50:07;101484.34;;;21.46;46.34
47716;BME280;33476;50.984;3.538;2023-06-14T04:52:33;101483.09;;;21.50;45.91
47716;BME280;33476;50.984;3.538;2023-06-14T04:55:00;101481.03;;;21.54;45.58
47716;BME280;33476;50.984;3.538;2023-06-14T04:57:27;101493.09;;;21.58;45.23
47716;BME280;33476;50.984;3.538;2023-06-14T04:59:52;101490.06;;;21.63;45.32
47716;BME280;33476;50.984;3.538;2023-06-14T05:02:24;101503.22;;;21.64;44.76
47716;BME280;33476;50.984;3.538;2023-06-14T05:04:50;101505.38;;;21.70;44.57
47716;BME280;33476;50.984;3.538;2023-06-14T05:07:16;101502.31;;;21.75;45.17
47716;BME280;33476;50.984;3.538;2023-06-14T05:09:41;101503.97;;;21.76;44.48
47716;BME280;33476;50.984;3.538;2023-06-14T05:12:07;101509.75;;;21.81;44.20
47716;BME280;33476;50.984;3.538;2023-06-14T05:14:36;101513.59;;;21.88;44.34
47716;BME280;33476;50.984;3.538;2023-06-14T05:17:01;101512.94;;;21.96;44.12
47716;BME280;33476;50.984;3.538;2023-06-14T05:19:28;101512.53;;;22.00;43.78
47716;BME280;33476;50.984;3.538;2023-06-14T05:21:53;101513.97;;;22.04;43.43
47716;BME280;33476;50.984;3.538;2023-06-14T05:24:18;101507.34;;;22.10;43.13
47716;BME280;33476;50.984;3.538;2023-06-14T05:26:45;101512.25;;;22.14;42.88
47716;BME280;33476;50.984;3.538;2023-06-14T05:29:10;101509.78;;;22.23;42.74
47716;BME280;33476;50.984;3.538;2023-06-14T05:31:36;101512.88;;;22.28;42.65
47716;BME280;33476;50.984;3.538;2023-06-14T05:34:02;101515.13;;;22.32;42.53
47716;BME280;33476;50.984;3.538;2023-06-14T05:36:27;101516.56;;;22.36;42.55
47716;BME280;33476;50.984;3.538;2023-06-14T05:38:53;101518.72;;;22.42;42.31
47716;BME280;33476;50.984;3.538;2023-06-14T05:41:26;101517.59;;;22.45;41.99
47716;BME280;33476;50.984;3.538;2023-06-14T05:43:54;101524.63;;;22.56;42.45
47716;BME280;33476;50.984;3.538;2023-06-14T05:46:19;101520.59;;;22.61;41.54
47716;BME280;33476;50.984;3.538;2023-06-14T05:48:48;101526.34;;;22.66;41.79
47716;BME280;33476;50.984;3.538;2023-06-14T05:51:13;101523.84;;;22.75;41.40
47716;BME280;33476;50.984;3.538;2023-06-14T05:53:38;101521.50;;;22.81;41.41
47716;BME280;33476;50.984;3.538;2023-06-14T05:56:04;101525.63;;;22.85;41.06
47716;BME280;33476;50.984;3.538;2023-06-14T05:58:29;101529.16;;;22.95;41.15
47716;BME280;33476;50.984;3.538;2023-06-14T06:00:54;101531.00;;;23.05;40.98
47716;BME280;33476;50.984;3.538;2023-06-14T06:03:20;101526.81;;;23.12;40.14
47716;BME280;33476;50.984;3.538;2023-06-14T06:05:46;101526.25;;;23.18;40.82
47716;BME280;33476;50.984;3.538;2023-06-14T06:08:11;101528.34;;;23.24;40.13
47716;BME280;33476;50.984;3.538;2023-06-14T06:10:37;101525.00;;;23.32;39.98
47716;BME280;33476;50.984;3.538;2023-06-14T06:13:02;101527.25;;;23.36;39.69
47716;BME280;33476;50.984;3.538;2023-06-14T06:15:27;101528.38;;;23.43;39.50
47716;BME280;33476;50.984;3.538;2023-06-14T06:17:52;101531.03;;;23.53;39.50
47716;BME280;33476;50.984;3.538;2023-06-14T06:20:18;101530.38;;;23.61;39.77
47716;BME280;33476;50.984;3.538;2023-06-14T06:22:43;101530.66;;;23.67;38.94
47716;BME280;33476;50.984;3.538;2023-06-14T06:25:09;101525.72;;;23.72;38.57
47716;BME280;33476;50.984;3.538;2023-06-14T06:27:35;101522.66;;;23.77;38.47
47716;BME280;33476;50.984;3.538;2023-06-14T06:30:03;101530.94;;;23.84;38.48
47716;BME280;33476;50.984;3.538;2023-06-14T06:32:28;101532.00;;;23.91;38.08
47716;BME280;33476;50.984;3.538;2023-06-14T06:34:53;101531.19;;;24.00;37.61
47716;BME280;33476;50.984;3.538;2023-06-14T06:37:19;101539.16;;;24.09;37.43
47716;BME280;33476;50.984;3.538;2023-06-14T06:39:44;101537.31;;;24.20;37.65
47716;BME280;33476;50.984;3.538;2023-06-14T06:42:10;101532.63;;;24.31;37.80
47716;BME280;33476;50.984;3.538;2023-06-14T06:44:36;101537.53;;;24.46;37.58
47716;BME280;33476;50.984;3.538;2023-06-14T06:47:01;101538.75;;;24.61;37.35
47716;BME280;33476;50.984;3.538;2023-06-14T06:49:27;101538.53;;;24.72;36.93
47716;BME280;33476;50.984;3.538;2023-06-14T06:52:06;101537.81;;;24.80;36.34
47716;BME280;33476;50.984;3.538;2023-06-14T06:54:32;101535.31;;;24.96;36.33
47716;BME280;33476;50.984;3.538;2023-06-14T06:56:58;101540.63;;;25.06;36.39
47716;BME280;33476;50.984;3.538;2023-06-14T06:59:24;101540.28;;;25.18;36.29
47716;BME280;33476;50.984;3.538;2023-06-14T07:01:50;101535.53;;;25.30;36.00
47716;BME280;33476;50.984;3.538;2023-06-14T07:04:15;101539.44;;;25.36;35.68
47716;BME280;33476;50.984;3.538;2023-06-14T07:06:42;101533.88;;;25.47;36.37
47716;BME280;33476;50.984;3.538;2023-06-14T07:09:07;101540.53;;;25.61;35.72
47716;BME280;33476;50.984;3.538;2023-06-14T07:11:37;101550.28;;;25.70;35.46
47716;BME280;33476;50.984;3.538;2023-06-14T07:14:02;101541.06;;;25.82;35.44
47716;BME280;33476;50.984;3.538;2023-06-14T07:16:27;101541.66;;;25.94;36.11
47716;BME280;33476;50.984;3.538;2023-06-14T07:18:53;101543.41;;;26.03;35.18
47716;BME280;33476;50.984;3.538;2023-06-14T07:21:18;101541.94;;;26.09;34.68
47716;BME280;33476;50.984;3.538;2023-06-14T07:23:43;101553.06;;;26.22;34.94
47716;BME280;33476;50.984;3.538;2023-06-14T07:26:09;101546.91;;;26.29;34.91
47716;BME280;33476;50.984;3.538;2023-06-14T07:28:34;101557.41;;;26.41;34.92
47716;BME280;33476;50.984;3.538;2023-06-14T07:31:00;101559.28;;;26.48;34.98
47716;BME280;33476;50.984;3.538;2023-06-14T07:33:26;101557.13;;;26.52;34.29
47716;BME280;33476;50.984;3.538;2023-06-14T07:35:51;101555.66;;;26.57;34.10
47716;BME280;33476;50.984;3.538;2023-06-14T07:38:18;101553.69;;;26.68;33.93
47716;BME280;33476;50.984;3.538;2023-06-14T07:40:43;101560.53;;;26.70;33.40
47716;BME280;33476;50.984;3.538;2023-06-14T07:43:08;101556.72;;;26.81;33.33
47716;BME280;33476;50.984;3.538;2023-06-14T07:45:34;101560.97;;;26.92;33.01
47716;BME280;33476;50.984;3.538;2023-06-14T07:47:59;101563.34;;;27.03;32.84
47716;BME280;33476;50.984;3.538;2023-06-14T07:50:24;101563.56;;;27.09;32.55
47716;BME280;33476;50.984;3.538;2023-06-14T07:52:50;101565.75;;;27.14;32.71
47716;BME280;33476;50.984;3.538;2023-06-14T07:55:16;101566.66;;;27.23;32.78
47716;BME280;33476;50.984;3.538;2023-06-14T07:57:42;101565.97;;;27.37;32.40
47716;BME280;33476;50.984;3.538;2023-06-14T08:00:09;101564.66;;;27.49;32.69
47716;BME280;33476;50.984;3.538;2023-06-14T08:02:41;101560.47;;;27.55;32.48
47716;BME280;33476;50.984;3.538;2023-06-14T08:05:06;101559.63;;;27.62;32.25
47716;BME280;33476;50.984;3.538;2023-06-14T08:07:32;101563.88;;;27.73;32.54
47716;BME280;33476;50.984;3.538;2023-06-14T08:09:57;101567.06;;;27.85;32.54
47716;BME280;33476;50.984;3.538;2023-06-14T08:12:23;101562.88;;;27.90;32.30
47716;BME280;33476;50.984;3.538;2023-06-14T08:14:48;101565.19;;;28.02;32.18
47716;BME280;33476;50.984;3.538;2023-06-14T08:17:13;101558.81;;;28.11;32.17
47716;BME280;33476;50.984;3.538;2023-06-14T08:19:39;101570.06;;;28.22;31.60
47716;BME280;33476;50.984;3.538;2023-06-14T08:22:04;101561.66;;;28.34;31.78
47716;BME280;33476;50.984;3.538;2023-06-14T08:24:30;101564.66;;;28.47;31.60
47716;BME280;33476;50.984;3.538;2023-06-14T08:26:55;101568.31;;;28.54;31.28
47716;BME280;33476;50.984;3.538;2023-06-14T08:29:21;101562.91;;;28.62;31.80
47716;BME280;33476;50.984;3.538;2023-06-14T08:31:47;101562.34;;;28.75;30.79
47716;BME280;33476;50.984;3.538;2023-06-14T08:34:13;101563.53;;;28.80;31.17
47716;BME280;33476;50.984;3.538;2023-06-14T08:36:38;101564.31;;;28.89;30.67
47716;BME280;33476;50.984;3.538;2023-06-14T08:39:03;101571.38;;;28.98;30.80
47716;BME280;33476;50.984;3.538;2023-06-14T08:41:29;101569.28;;;29.08;29.85
47716;BME280;33476;50.984;3.538;2023-06-14T08:43:56;101571.75;;;29.18;28.82
47716;BME280;33476;50.984;3.538;2023-06-14T08:46:25;101562.47;;;29.21;28.59
47716;BME280;33476;50.984;3.538;2023-06-14T08:48:53;101563.44;;;29.28;28.83
47716;BME280;33476;50.984;3.538;2023-06-14T08:51:22;101562.41;;;29.29;28.82
47716;BME280;33476;50.984;3.538;2023-06-14T08:53:54;101565.78;;;29.31;28.43
47716;BME280;33476;50.984;3.538;2023-06-14T08:56:25;101569.56;;;29.45;28.01
47716;BME280;33476;50.984;3.538;2023-06-14T08:58:51;101573.88;;;29.54;28.32
47716;BME280;33476;50.984;3.538;2023-06-14T09:01:16;101572.22;;;29.53;27.49
47716;BME280;33476;50.984;3.538;2023-06-14T09:03:43;101572.06;;;29.54;28.00
47716;BME280;33476;50.984;3.538;2023-06-14T09:06:09;101572.00;;;29.62;27.65
47716;BME280;33476;50.984;3.538;2023-06-14T09:08:41;101565.22;;;29.67;27.21
47716;BME280;33476;50.984;3.538;2023-06-14T09:11:08;101568.56;;;29.69;27.38
47716;BME280;33476;50.984;3.538;2023-06-14T09:13:34;101570.28;;;29.84;28.05
47716;BME280;33476;50.984;3.538;2023-06-14T09:16:00;101572.72;;;29.94;26.77
47716;BME280;33476;50.984;3.538;2023-06-14T09:18:36;101577.09;;;29.95;26.76
47716;BME280;33476;50.984;3.538;2023-06-14T09:21:02;101572.78;;;30.09;26.88
47716;BME280;33476;50.984;3.538;2023-06-14T09:23:27;101582.28;;;30.19;27.07
47716;BME280;33476;50.984;3.538;2023-06-14T09:25:52;101574.50;;;30.25;26.14
47716;BME280;33476;50.984;3.538;2023-06-14T09:28:18;101581.47;;;30.34;25.87
47716;BME280;33476;50.984;3.538;2023-06-14T09:30:47;101574.22;;;30.34;25.95
47716;BME280;33476;50.984;3.538;2023-06-14T09:33:17;101581.75;;;30.39;25.96
47716;BME280;33476;50.984;3.538;2023-06-14T09:35:45;101570.13;;;30.53;26.54
47716;BME280;33476;50.984;3.538;2023-06-14T09:38:11;101572.38;;;30.64;26.13
47716;BME280;33476;50.984;3.538;2023-06-14T09:40:36;101583.19;;;30.79;26.05
47716;BME280;33476;50.984;3.538;2023-06-14T09:43:06;101577.19;;;30.84;25.12
47716;BME280;33476;50.984;3.538;2023-06-14T09:45:35;101583.31;;;30.92;24.65
47716;BME280;33476;50.984;3.538;2023-06-14T09:48:00;101582.69;;;30.90;24.89
47716;BME280;33476;50.984;3.538;2023-06-14T09:50:26;101590.78;;;30.90;25.11
47716;BME280;33476;50.984;3.538;2023-06-14T09:52:52;101585.91;;;31.00;24.53
47716;BME280;33476;50.984;3.538;2023-06-14T09:55:23;101585.38;;;31.05;24.33
47716;BME280;33476;50.984;3.538;2023-06-14T09:57:51;101585.81;;;31.09;24.48
47716;BME280;33476;50.984;3.538;2023-06-14T10:00:18;101578.34;;;31.11;24.71
47716;BME280;33476;50.984;3.538;2023-06-14T10:02:50;101578.06;;;31.20;25.14
47716;BME280;33476;50.984;3.538;2023-06-14T10:05:19;101586.06;;;31.28;23.87
47716;BME280;33476;50.984;3.538;2023-06-14T10:07:58;101579.38;;;31.24;24.05
47716;BME280;33476;50.984;3.538;2023-06-14T10:10:25;101586.06;;;31.28;23.81
47716;BME280;33476;50.984;3.538;2023-06-14T10:12:51;101603.31;;;31.13;24.26
47716;BME280;33476;50.984;3.538;2023-06-14T10:15:20;101592.31;;;31.14;25.03
47716;BME280;33476;50.984;3.538;2023-06-14T10:17:53;101586.16;;;31.20;24.75
47716;BME280;33476;50.984;3.538;2023-06-14T10:20:39;101580.75;;;31.20;24.17
47716;BME280;33476;50.984;3.538;2023-06-14T10:23:15;101576.47;;;31.26;24.56
47716;BME280;33476;50.984;3.538;2023-06-14T10:25:42;101578.03;;;31.35;24.30
47716;BME280;33476;50.984;3.538;2023-06-14T10:28:16;101576.00;;;31.37;23.36
47716;BME280;33476;50.984;3.538;2023-06-14T10:31:17;101567.50;;;31.40;24.19
47716;BME280;33476;50.984;3.538;2023-06-14T10:33:50;101574.91;;;31.53;23.95
47716;BME280;33476;50.984;3.538;2023-06-14T10:39:07;101576.94;;;31.72;23.12
47716;BME280;33476;50.984;3.538;2023-06-14T10:41:39;101579.38;;;31.67;23.99
47716;BME280;33476;50.984;3.538;2023-06-14T10:46:46;101576.31;;;31.70;23.39
47716;BME280;33476;50.984;3.538;2023-06-14T10:49:12;101570.72;;;31.72;23.34
47716;BME280;33476;50.984;3.538;2023-06-14T10:51:42;101571.34;;;31.74;22.90
47716;BME280;33476;50.984;3.538;2023-06-14T10:54:14;101580.44;;;31.88;23.52
47716;BME280;33476;50.984;3.538;2023-06-14T10:59:12;101584.47;;;31.98;23.04
47716;BME280;33476;50.984;3.538;2023-06-14T11:01:41;101573.22;;;31.95;22.81
47716;BME280;33476;50.984;3.538;2023-06-14T11:04:10;101572.88;;;32.04;23.97
47716;BME280;33476;50.984;3.538;2023-06-14T11:06:45;101572.06;;;32.10;23.48
47716;BME280;33476;50.984;3.538;2023-06-14T11:09:24;101572.31;;;32.15;23.40
47716;BME280;33476;50.984;3.538;2023-06-14T11:11:56;101566.50;;;32.19;23.42
47716;BME280;33476;50.984;3.538;2023-06-14T11:14:22;101569.88;;;32.21;23.39
47716;BME280;33476;50.984;3.538;2023-06-14T11:16:49;101567.38;;;32.19;23.28
47716;BME280;33476;50.984;3.538;2023-06-14T11:19:14;101567.31;;;32.12;23.42
47716;BME280;33476;50.984;3.538;2023-06-14T11:21:40;101567.41;;;31.98;23.18
47716;BME280;33476;50.984;3.538;2023-06-14T11:24:10;101558.00;;;31.87;22.81
47716;BME280;33476;50.984;3.538;2023-06-14T11:26:37;101552.97;;;31.84;23.88
47716;BME280;33476;50.984;3.538;2023-06-14T11:29:03;101555.16;;;32.02;24.08
47716;BME280;33476;50.984;3.538;2023-06-14T11:31:28;101556.94;;;32.16;24.50
47716;BME280;33476;50.984;3.538;2023-06-14T11:33:55;101545.41;;;32.29;24.25
47716;BME280;33476;50.984;3.538;2023-06-14T11:36:23;101546.94;;;32.38;23.62
47716;BME280;33476;50.984;3.538;2023-06-14T11:38:48;101546.31;;;32.42;23.42
47716;BME280;33476;50.984;3.538;2023-06-14T11:41:14;101552.34;;;32.38;23.67
47716;BME280;33476;50.984;3.538;2023-06-14T11:43:39;101549.19;;;32.34;23.19
47716;BME280;33476;50.984;3.538;2023-06-14T11:46:12;101543.97;;;32.33;23.92
47716;BME280;33476;50.984;3.538;2023-06-14T11:48:41;101546.56;;;32.48;23.99
47716;BME280;33476;50.984;3.538;2023-06-14T11:51:07;101550.97;;;32.55;23.89
47716;BME280;33476;50.984;3.538;2023-06-14T11:53:32;101539.53;;;32.53;22.76
47716;BME280;33476;50.984;3.538;2023-06-14T11:55:58;101556.97;;;32.44;22.65
47716;BME280;33476;50.984;3.538;2023-06-14T11:58:23;101552.47;;;32.30;22.32
47716;BME280;33476;50.984;3.538;2023-06-14T12:00:50;101553.97;;;32.32;23.22
47716;BME280;33476;50.984;3.538;2023-06-14T12:03:15;101543.00;;;32.40;23.42
47716;BME280;33476;50.984;3.538;2023-06-14T12:05:41;101551.56;;;32.44;23.11
47716;BME280;33476;50.984;3.538;2023-06-14T12:08:06;101553.88;;;32.54;23.09
47716;BME280;33476;50.984;3.538;2023-06-14T12:10:40;101559.50;;;32.52;22.00
47716;BME280;33476;50.984;3.538;2023-06-14T12:13:09;101550.34;;;32.53;22.42
47716;BME280;33476;50.984;3.538;2023-06-14T12:15:34;101550.13;;;32.55;22.78
47716;BME280;33476;50.984;3.538;2023-06-14T12:18:00;101545.13;;;32.52;22.96
47716;BME280;33476;50.984;3.538;2023-06-14T12:20:30;101543.06;;;32.54;22.49
47716;BME280;33476;50.984;3.538;2023-06-14T12:22:57;101545.34;;;32.57;21.74
47716;BME280;33476;50.984;3.538;2023-06-14T12:25:27;101534.97;;;32.60;22.69
47716;BME280;33476;50.984;3.538;2023-06-14T12:27:57;101541.44;;;32.66;22.53
47716;BME280;33476;50.984;3.538;2023-06-14T12:30:23;101540.19;;;32.68;22.19
47716;BME280;33476;50.984;3.538;2023-06-14T12:32:48;101547.47;;;32.68;22.31
47716;BME280;33476;50.984;3.538;2023-06-14T12:35:14;101550.00;;;32.69;22.36
47716;BME280;33476;50.984;3.538;2023-06-14T12:37:40;101547.91;;;32.65;21.69
47716;BME280;33476;50.984;3.538;2023-06-14T12:40:05;101553.09;;;32.66;22.08
47716;BME280;33476;50.984;3.538;2023-06-14T12:42:32;101542.28;;;32.66;21.48
47716;BME280;33476;50.984;3.538;2023-06-14T12:44:59;101552.69;;;32.63;21.70
47716;BME280;33476;50.984;3.538;2023-06-14T12:47:24;101553.47;;;32.57;21.43
47716;BME280;33476;50.984;3.538;2023-06-14T12:49:49;101554.91;;;32.53;21.47
47716;BME280;33476;50.984;3.538;2023-06-14T12:52:15;101550.09;;;32.48;21.62
47716;BME280;33476;50.984;3.538;2023-06-14T12:54:41;101555.75;;;32.53;21.34
47716;BME280;33476;50.984;3.538;2023-06-14T12:57:06;101558.47;;;32.60;21.74